Flight Track Log - Related Links

Times and Time Zones

All times are in EDT time to prevent confusion due to time zone crossing. See the RPA3275 flight status page for this flight to view local times or setup timezone preferences in your user account.

Time Position Orientation Groundspeed Altitude Reporting Facility
EDT Latitude Longitude Course Direction KTS MPH feet Rate Location/Type
Thu 07:03:13 AM 42.7672 -73.8061 347° North 152 175 1,300  Level Boston Center
Thu 07:04:20 AM 42.8275 -73.8244 347° North 241 277 3,200 2,015 Climbing Boston Center
Thu 07:05:27 AM 42.8244 -73.9150 267° West 242 278 5,800 2,976 Climbing Boston Center
Thu 07:06:27 AM 42.8022 -74.0133 253° West 257 296 9,500 3,600 Climbing Boston Center
Thu 07:07:27 AM 42.7447 -74.0939 226° Southwest 283 326 13,000 3,250 Climbing Boston Center
Thu 07:08:27 AM 42.6828 -74.1911 229° Southwest 309 356 16,000 1,500 Climbing Boston Center
Thu 07:09:27 AM 42.6317 -74.2717 229° Southwest 314 361 16,000 -50 Level Boston Center
Thu 07:10:27 AM 42.5675 -74.3683 228° Southwest 319 367 15,900 -50 Descending Boston Center
Thu 07:11:27 AM 42.5139 -74.4511 229° Southwest 319 367 15,900  Level Boston Center
Thu 07:12:27 AM 42.4497 -74.5475 228° Southwest 324 373 15,900  Level Boston Center
Thu 07:13:27 AM 42.3961 -74.6272 228° Southwest 329 379 15,900  Level Boston Center
Thu 07:15:30 AM 42.2642 -74.8283 228° Southwest 335 386 15,900  Level New York Center
Thu 07:16:31 AM 42.2003 -74.9250 228° Southwest 341 392 15,900  Level New York Center
Thu 07:17:31 AM 42.1289 -75.0017 219° Southwest 351 404 15,900  Level New York Center
Thu 07:18:31 AM 42.0389 -75.0769 212° Southwest 359 413 15,900  Level New York Center
Thu 07:19:31 AM 41.9617 -75.1386 211° Southwest 359 413 15,900  Level New York Center
Thu 07:20:28 AM 41.8800 -75.2058 212° Southwest 364 419 15,900 -303 Level New York Center
Thu 07:21:30 AM 41.7836 -75.2828 211° Southwest 364 419 15,300 -732 Descending New York Center
Thu 07:22:31 AM 41.7039 -75.3497 212° Southwest 359 413 14,400 -893 Descending New York Center
Thu 07:23:31 AM 41.6289 -75.4083 210° Southwest 354 407 13,500 -915 Descending New York Center
Thu 07:24:29 AM 41.5469 -75.4747 211° Southwest 354 407 12,600 -800 Descending New York Center
Thu 07:25:31 AM 41.4589 -75.5433 210° Southwest 349 402 11,900 -350 Descending New York Center
Thu 07:26:29 AM 41.3814 -75.6069 212° Southwest 344 396 11,900  Level New York Center
Thu 07:27:29 AM 41.3125 -75.6572 209° Southwest 337 388 11,900  Level New York Center
Thu 07:28:30 AM 41.2258 -75.6922 197° South 311 358 11,900  Level New York Center
Thu 07:29:31 AM 41.1406 -75.6861 177° South 318 366 11,900  Level New York Center
Thu 07:30:28 AM 41.0503 -75.6547 165° South 334 384 11,900  Level New York Center
Thu 07:31:30 AM 40.9597 -75.6236 165° South 334 384 11,900  Level New York Center
Thu 07:32:31 AM 40.8592 -75.5861 164° South 334 384 11,900  Level New York Center
Thu 07:33:29 AM 40.7711 -75.5525 164° South 334 384 11,900  Level New York Center
Thu 07:34:29 AM 40.6808 -75.5189 164° South 339 390 11,900 50 Level New York Center
Thu 07:35:29 AM 40.5861 -75.4850 165° South 339 390 12,000 -545 Climbing New York Center
Thu 07:36:30 AM 40.5022 -75.4519 163° South 332 382 10,800 -1,328 Descending New York Center
Thu 07:37:31 AM 40.4242 -75.4167 161° South 312 359 9,300 -1,576 Descending New York Center
Thu 07:38:28 AM 40.3508 -75.3764 157° South 295 339 7,700 -1,150 Descending New York Center
Thu 07:39:31 AM 40.2878 -75.3394 156° South 285 328 7,000 -650 Descending New York Center
Thu 07:40:28 AM 40.2217 -75.3786 204° Southwest 243 280 6,400 -508 Descending New York Center
Thu 07:41:29 AM 40.1708 -75.4458 225° Southwest 253 291 6,000 -197 Descending New York Center
Thu 07:42:30 AM 40.1231 -75.4997 221° Southwest 259 298 6,000  Level New York Center
Thu 07:43:29 AM 40.0414 -75.5075 184° South 259 298 6,000 -655 Level New York Center
Thu 07:44:29 AM 39.9703 -75.5108 182° South 259 298 4,700 -1,339 Descending New York Center
Thu 07:45:30 AM 39.9094 -75.5203 187° South 251 289 3,300 -1,172 Descending New York Center
Thu 07:45:56 AM 39.8667 -75.5000 160° South 207 238 3,000 -525 Descending Philadelphia TRACON
Thu 07:46:50 AM 39.8333 -75.4833 159° South 172 198 2,600 -444 Descending Philadelphia TRACON

Login

Don't have an account? Register now (free) for customized features, flight alerts, and more!